Time;durP1;ratioP1;P1;durP2;ratioP2;P2;SDS_P1;SDS_P2;PMS_P1;PMS_P2;Temp;Humidity;BMP_temperature;BMP_pressure;BME280_temperature;BME280_humidity;BME280_pressure;Samples;Min_cycle;Max_cycle;Signal;HPM_P1;HPM_P2
2023/10/12 00:02:21;;;;;;;9.85;2.95;;;13.20;99.90;;;;;;5115832;27;20379;-74
2023/10/12 00:04:53;;;;;;;15.70;3.15;;;13.20;99.90;;;;;;5125246;27;20051;-74
2023/10/12 00:07:33;;;;;;;12.10;3.00;;;13.30;99.90;;;;;;5134967;27;20047;-74
2023/10/12 00:10:19;;;;;;;10.35;3.22;;;13.20;99.90;;;;;;5135140;27;20464;-73
2023/10/12 00:12:47;;;;;;;12.73;2.78;;;13.20;99.90;;;;;;5134246;27;20047;-73
2023/10/12 00:15:23;;;;;;;14.15;2.95;;;13.20;99.90;;;;;;5134558;27;20428;-74
2023/10/12 00:17:51;;;;;;;11.13;2.58;;;13.20;99.90;;;;;;5134975;27;20099;-74
2023/10/12 00:20:22;;;;;;;14.15;3.15;;;13.20;99.90;;;;;;5134282;27;20054;-73
2023/10/12 00:22:50;;;;;;;12.13;2.63;;;13.20;99.90;;;;;;5134643;27;20054;-74
2023/10/12 00:25:19;;;;;;;12.18;2.78;;;13.30;99.90;;;;;;5134918;27;20075;-73
2023/10/12 00:27:47;;;;;;;10.40;2.63;;;13.30;99.90;;;;;;5134305;27;20138;-73
2023/10/12 00:30:15;;;;;;;7.63;2.33;;;13.20;99.90;;;;;;5133473;27;20538;-74
2023/10/12 00:32:42;;;;;;;11.50;3.03;;;13.20;99.90;;;;;;5115284;27;20062;-74
2023/10/12 00:35:10;;;;;;;11.00;3.20;;;13.20;99.90;;;;;;5114692;27;20147;-73
2023/10/12 00:37:41;;;;;;;11.65;2.40;;;13.30;99.90;;;;;;5115105;27;20112;-74
2023/10/12 00:40:25;;;;;;;8.77;2.63;;;13.20;99.90;;;;;;5114875;27;20035;-74
2023/10/12 00:42:54;;;;;;;9.55;3.10;;;13.20;99.90;;;;;;5134426;27;20103;-74
2023/10/12 00:45:28;;;;;;;10.35;3.20;;;13.30;99.90;;;;;;5134325;27;20050;-73
2023/10/12 00:47:56;;;;;;;11.25;2.60;;;13.20;99.90;;;;;;5134014;27;20096;-73
2023/10/12 00:50:27;;;;;;;14.52;2.65;;;13.20;99.90;;;;;;5111067;28;20051;-72
2023/10/12 00:52:56;;;;;;;14.68;2.67;;;13.20;99.90;;;;;;5111285;28;20466;-73
2023/10/12 00:55:35;;;;;;;14.48;3.25;;;13.20;99.90;;;;;;5110671;28;20043;-74
2023/10/12 00:58:08;;;;;;;16.75;3.20;;;13.20;99.90;;;;;;5110393;28;20048;-72
2023/10/12 01:00:45;;;;;;;12.70;3.22;;;13.20;99.90;;;;;;5111217;28;20078;-72
2023/10/12 01:03:35;;;;;;;12.27;2.78;;;13.20;99.90;;;;;;5109919;28;20043;-72
2023/10/12 01:06:12;;;;;;;10.63;2.67;;;13.20;99.90;;;;;;5109869;28;20055;-73
2023/10/12 01:08:42;;;;;;;13.73;3.78;;;13.20;99.90;;;;;;5118110;28;20078;-73
2023/10/12 01:11:14;;;;;;;17.08;6.13;;;13.20;99.90;;;;;;5112273;28;20083;-72
2023/10/12 01:13:48;;;;;;;13.50;5.35;;;13.20;99.90;;;;;;5108913;28;20491;-73
2023/10/12 01:16:22;;;;;;;19.00;7.03;;;13.20;99.90;;;;;;5110499;28;20048;-73
2023/10/12 01:18:55;;;;;;;21.13;5.78;;;13.10;99.90;;;;;;5110617;28;20066;-73
2023/10/12 01:21:22;;;;;;;12.02;3.63;;;13.20;99.90;;;;;;5111091;28;20384;-74
2023/10/12 01:23:51;;;;;;;13.40;3.50;;;13.10;99.90;;;;;;5110412;28;20408;-73
2023/10/12 01:26:18;;;;;;;10.65;2.70;;;13.10;99.90;;;;;;5112043;28;20395;-74
2023/10/12 01:28:49;;;;;;;9.93;2.38;;;13.10;99.90;;;;;;5115793;28;20449;-72
2023/10/12 01:31:27;;;;;;;;;;;13.10;99.90;;;;;;5112910;28;20039;-74
2023/10/12 01:33:55;;;;;;;5.70;2.40;;;13.00;99.90;;;;;;5113243;28;19919;-74
2023/10/12 01:36:23;;;;;;;12.40;2.75;;;13.00;99.90;;;;;;5113971;28;20044;-75
2023/10/12 01:39:10;;;;;;;9.02;2.25;;;13.00;99.90;;;;;;5114651;28;20055;-75
2023/10/12 01:41:40;;;;;;;10.95;2.35;;;13.00;99.90;;;;;;5114968;28;20089;-75
2023/10/12 01:44:10;;;;;;;11.98;2.63;;;12.90;99.90;;;;;;5113747;28;20055;-75
2023/10/12 01:46:39;;;;;;;9.57;2.17;;;13.00;99.90;;;;;;5114790;28;20069;-74
2023/10/12 01:49:07;;;;;;;15.00;3.13;;;12.90;99.90;;;;;;5112332;28;20055;-75
2023/10/12 01:51:36;;;;;;;11.77;2.88;;;12.90;99.90;;;;;;5113645;28;20094;-74
2023/10/12 01:54:06;;;;;;;10.25;2.80;;;12.90;99.90;;;;;;5115833;28;20131;-74
2023/10/12 01:56:34;;;;;;;12.70;2.40;;;12.80;99.90;;;;;;5111863;28;20051;-74
2023/10/12 01:59:05;;;;;;;15.10;2.40;;;12.80;99.90;;;;;;5113785;28;20051;-74
2023/10/12 02:01:34;;;;;;;12.52;2.47;;;12.80;99.90;;;;;;5112413;28;20054;-73
2023/10/12 02:04:02;;;;;;;10.18;2.80;;;12.80;99.90;;;;;;5114261;28;20100;-75
2023/10/12 02:06:29;;;;;;;21.58;2.92;;;12.80;99.90;;;;;;5113495;28;20047;-74
2023/10/12 02:09:08;;;;;;;10.07;2.58;;;12.80;99.90;;;;;;5113653;28;20379;-74
2023/10/12 02:11:45;;;;;;;9.13;2.58;;;12.70;99.90;;;;;;5114579;28;20047;-73
2023/10/12 02:14:14;;;;;;;11.90;2.33;;;12.70;99.90;;;;;;5113814;28;20130;-73
2023/10/12 02:16:52;;;;;;;12.38;2.70;;;12.70;99.90;;;;;;5113980;28;20069;-72
2023/10/12 02:19:31;;;;;;;15.50;2.30;;;12.70;99.90;;;;;;5114499;28;20085;-73
2023/10/12 02:22:01;;;;;;;7.65;2.22;;;12.60;99.90;;;;;;5113907;28;20088;-73
2023/10/12 02:24:28;;;;;;;10.97;3.10;;;12.60;99.90;;;;;;5112726;28;20089;-73
2023/10/12 02:27:00;;;;;;;8.15;2.42;;;12.60;99.90;;;;;;5113422;28;20281;-72
2023/10/12 02:29:35;;;;;;;10.73;2.50;;;12.50;99.90;;;;;;5113879;28;20055;-73
2023/10/12 02:32:20;;;;;;;10.48;2.28;;;12.50;99.90;;;;;;5113775;28;20056;-73
2023/10/12 02:34:51;;;;;;;7.85;2.10;;;12.50;99.90;;;;;;5113245;28;20048;-72
2023/10/12 02:37:21;;;;;;;7.88;2.63;;;12.50;99.90;;;;;;5113553;28;20491;-73
2023/10/12 02:39:48;;;;;;;7.47;2.22;;;12.40;99.90;;;;;;5112876;28;20050;-73
2023/10/12 02:42:22;;;;;;;12.00;2.22;;;12.40;99.90;;;;;;5113721;28;20062;-73
2023/10/12 02:45:08;;;;;;;10.60;2.50;;;12.40;99.90;;;;;;5111458;28;20047;-73
2023/10/12 02:47:40;;;;;;;9.52;2.50;;;12.40;99.90;;;;;;5111110;28;20403;-72
2023/10/12 02:50:20;;;;;;;14.80;2.42;;;12.30;99.90;;;;;;5110867;28;20507;-71
2023/10/12 02:52:52;;;;;;;15.98;3.65;;;12.30;99.90;;;;;;5112917;28;20521;-74
2023/10/12 02:55:24;;;;;;;10.48;2.25;;;12.30;99.90;;;;;;5112705;28;20088;-72
2023/10/12 02:57:56;;;;;;;11.45;2.40;;;12.30;99.90;;;;;;5113459;28;20047;-73
2023/10/12 03:00:32;;;;;;;10.75;2.25;;;12.30;99.90;;;;;;5113243;28;20056;-73
2023/10/12 03:03:07;;;;;;;10.48;3.30;;;12.20;99.90;;;;;;5112359;28;20054;-74
2023/10/12 03:05:45;;;;;;;10.13;2.25;;;12.20;99.90;;;;;;5112805;28;20392;-73
2023/10/12 03:08:16;;;;;;;11.57;2.75;;;12.20;99.90;;;;;;5112910;28;20055;-72
2023/10/12 03:11:00;;;;;;;15.30;3.28;;;12.20;99.90;;;;;;5112618;28;20131;-73
2023/10/12 03:13:34;;;;;;;12.68;2.47;;;12.20;99.90;;;;;;5112852;28;20097;-73
2023/10/12 03:16:08;;;;;;;7.95;2.15;;;12.20;99.90;;;;;;5112378;28;20058;-74
2023/10/12 03:18:35;;;;;;;10.65;2.40;;;12.10;99.90;;;;;;5111353;28;20052;-73
2023/10/12 03:21:04;;;;;;;12.25;2.83;;;12.10;99.90;;;;;;5112619;28;20096;-72
2023/10/12 03:23:33;;;;;;;9.23;2.63;;;12.10;99.90;;;;;;5112225;28;20436;-73
2023/10/12 03:26:04;;;;;;;10.57;2.40;;;12.00;99.90;;;;;;5110616;28;20389;-73
2023/10/12 03:28:43;;;;;;;14.68;2.45;;;12.00;99.90;;;;;;5112683;28;20432;-72
2023/10/12 03:31:21;;;;;;;10.50;2.97;;;12.00;99.90;;;;;;5110279;28;20048;-73
2023/10/12 03:33:53;;;;;;;7.13;2.10;;;12.00;99.90;;;;;;5110756;28;20059;-73
2023/10/12 03:36:23;;;;;;;13.07;2.28;;;12.00;99.90;;;;;;5109868;28;20055;-72
2023/10/12 03:39:24;;;;;;;8.60;2.30;;;12.00;99.90;;;;;;5112424;28;20441;-72
2023/10/12 03:42:10;;;;;;;11.35;2.22;;;12.00;99.90;;;;;;5110909;28;20365;-72
2023/10/12 03:44:49;;;;;;;10.18;2.53;;;12.00;99.90;;;;;;5104789;28;20040;-72
2023/10/12 03:47:24;;;;;;;13.57;2.85;;;12.30;99.90;;;;;;5110435;28;20499;-72
2023/10/12 03:49:59;;;;;;;11.60;2.35;;;12.10;99.90;;;;;;5108281;28;20131;-72
2023/10/12 03:52:34;;;;;;;12.82;2.72;;;12.10;99.90;;;;;;5105231;28;20097;-72
2023/10/12 03:57:45;;;;;;;12.02;3.03;;;12.10;99.90;;;;;;5107620;28;20043;-73
2023/10/12 04:00:32;;;;;;;14.95;2.97;;;12.10;99.90;;;;;;5107190;28;20043;-74
2023/10/12 04:03:04;;;;;;;11.75;2.85;;;12.10;99.90;;;;;;5110146;28;20158;-73
2023/10/12 04:05:50;;;;;;;8.10;2.28;;;12.30;99.90;;;;;;5108685;28;20130;-72
2023/10/12 04:14:09;;;;;;;16.75;2.95;;;12.10;99.90;;;;;;5110623;28;20039;-73
2023/10/12 04:16:45;;;;;;;10.00;2.03;;;12.00;99.90;;;;;;5110443;28;20090;-73
2023/10/12 04:19:15;;;;;;;12.77;2.80;;;12.00;99.90;;;;;;5109051;28;20058;-73
2023/10/12 04:22:00;;;;;;;13.90;2.97;;;12.00;99.90;;;;;;5107006;28;20511;-72
2023/10/12 04:24:42;;;;;;;13.55;3.05;;;12.00;99.90;;;;;;5109570;28;20124;-71
2023/10/12 04:27:38;;;;;;;15.43;2.25;;;12.10;99.90;;;;;;5106700;28;20403;-71
2023/10/12 04:30:20;;;;;;;8.07;2.42;;;12.10;99.90;;;;;;5105463;28;20396;-72
2023/10/12 04:33:11;;;;;;;14.40;2.83;;;12.00;99.90;;;;;;5109979;28;20140;-71
2023/10/12 04:38:30;;;;;;;12.25;2.85;;;12.00;99.90;;;;;;5093350;28;20047;-71
2023/10/12 04:43:52;;;;;;;10.38;1.85;;;12.00;99.90;;;;;;5072154;28;20051;-72
2023/10/12 04:46:27;;;;;;;9.43;2.38;;;11.90;99.90;;;;;;5110057;28;20418;-71
2023/10/12 04:49:29;;;;;;;9.73;2.97;;;12.00;99.90;;;;;;5110208;28;20059;-71
2023/10/12 04:51:51;;;;;;;22.10;3.08;;;12.00;99.90;;;;;;5117582;27;20055;-72
2023/10/12 04:54:23;;;;;;;5.60;2.47;;;12.10;99.90;;;;;;5131281;27;20097;-72
2023/10/12 04:56:56;;;;;;;9.02;2.03;;;12.00;99.90;;;;;;5118082;28;20047;-73
2023/10/12 04:59:29;;;;;;;16.90;2.75;;;11.90;99.90;;;;;;5124411;28;20051;-73
2023/10/12 05:02:15;;;;;;;18.33;2.75;;;11.80;99.90;;;;;;5112837;27;20051;-71
2023/10/12 05:05:14;;;;;;;12.32;2.50;;;11.80;99.90;;;;;;5138267;27;20522;-74
2023/10/12 05:10:26;;;;;;;8.65;2.38;;;11.70;99.90;;;;;;5116480;27;20044;-76
2023/10/12 05:12:57;;;;;;;12.57;2.72;;;11.70;99.90;;;;;;5135433;27;20052;-73
2023/10/12 05:15:26;;;;;;;12.23;2.35;;;11.70;99.90;;;;;;5131229;27;20748;-74
2023/10/12 05:17:52;;;;;;;6.25;2.28;;;11.60;99.90;;;;;;5135794;27;20529;-75
2023/10/12 05:20:23;;;;;;;10.18;3.13;;;11.60;99.90;;;;;;5134186;27;20088;-74
2023/10/12 05:22:51;;;;;;;13.18;2.92;;;11.60;99.90;;;;;;5114578;27;20108;-73
2023/10/12 05:25:18;;;;;;;11.20;2.40;;;11.50;99.90;;;;;;5119644;27;20056;-73
2023/10/12 05:28:04;;;;;;;8.13;3.08;;;11.40;99.90;;;;;;5114722;27;20089;-74
2023/10/12 05:30:31;;;;;;;10.15;2.30;;;11.40;99.90;;;;;;5133746;27;20066;-73
2023/10/12 05:33:04;;;;;;;8.50;2.33;;;11.20;99.90;;;;;;5123613;27;20044;-73
2023/10/12 05:35:49;;;;;;;5.85;2.17;;;11.20;99.90;;;;;;5124665;27;20070;-72
2023/10/12 05:38:17;;;;;;;11.02;2.60;;;11.10;99.90;;;;;;5123648;27;20039;-73
2023/10/12 05:40:53;;;;;;;15.88;2.83;;;11.10;99.90;;;;;;5120166;27;20134;-73
2023/10/12 05:43:22;;;;;;;8.57;2.38;;;11.00;99.90;;;;;;5133308;27;20050;-73
2023/10/12 05:45:49;;;;;;;8.27;2.50;;;10.90;99.90;;;;;;5134196;27;20055;-72
2023/10/12 05:48:19;;;;;;;8.98;1.80;;;10.90;99.90;;;;;;5133936;27;20055;-72
2023/10/12 05:50:53;;;;;;;9.95;2.80;;;10.90;99.90;;;;;;5133147;27;20051;-75
2023/10/12 05:53:21;;;;;;;15.00;2.50;;;10.80;99.90;;;;;;5133326;27;20043;-72
2023/10/12 05:55:48;;;;;;;8.45;2.17;;;10.70;99.90;;;;;;5129480;27;20086;-73
2023/10/12 05:58:15;;;;;;;11.68;2.63;;;10.70;99.90;;;;;;5121976;27;20062;-72
2023/10/12 06:00:45;;;;;;;6.72;2.00;;;10.60;99.90;;;;;;5123174;27;20040;-73
2023/10/12 06:03:16;;;;;;;10.95;2.92;;;10.60;99.90;;;;;;5114321;27;20075;-75
2023/10/12 06:05:44;;;;;;;8.23;2.20;;;10.60;99.90;;;;;;5124784;27;20047;-75
2023/10/12 06:08:16;;;;;;;7.72;2.25;;;10.50;99.90;;;;;;5121106;27;20108;-73
2023/10/12 06:10:44;;;;;;;8.32;2.35;;;10.50;99.90;;;;;;5122829;27;20126;-73
2023/10/12 06:13:13;;;;;;;12.02;2.88;;;10.50;99.90;;;;;;5120495;27;20060;-73
2023/10/12 06:15:42;;;;;;;8.85;2.30;;;10.50;99.90;;;;;;5125254;27;20047;-74
2023/10/12 06:18:13;;;;;;;9.48;2.38;;;10.60;99.90;;;;;;5113043;28;20050;-73
2023/10/12 06:20:42;;;;;;;8.93;2.67;;;10.50;99.90;;;;;;5114429;27;20134;-72
2023/10/12 06:23:13;;;;;;;10.65;2.25;;;10.60;99.90;;;;;;5114063;27;20054;-72
2023/10/12 06:25:43;;;;;;;12.38;2.47;;;10.60;99.90;;;;;;5115728;27;20053;-73
2023/10/12 06:28:17;;;;;;;7.78;2.25;;;10.70;99.90;;;;;;5133178;27;20074;-72
2023/10/12 06:30:45;;;;;;;6.75;2.25;;;10.70;99.90;;;;;;5133433;27;20057;-72
2023/10/12 06:33:14;;;;;;;15.32;2.38;;;10.80;99.90;;;;;;5131318;27;20584;-73
2023/10/12 06:35:58;;;;;;;10.27;3.08;;;10.90;99.90;;;;;;5122198;27;20054;-73
2023/10/12 06:38:38;;;;;;;8.80;2.15;;;10.90;99.90;;;;;;5123633;27;20078;-73
2023/10/12 06:44:13;;;;;;;8.50;2.13;;;11.00;99.90;;;;;;5133154;27;20059;-72
2023/10/12 06:46:46;;;;;;;9.00;2.80;;;11.00;99.90;;;;;;5133070;27;20043;-73
2023/10/12 06:49:18;;;;;;;6.40;1.95;;;11.10;99.90;;;;;;5133554;27;20045;-73
2023/10/12 06:51:53;;;;;;;8.80;2.10;;;11.10;99.90;;;;;;5132778;27;20058;-72
2023/10/12 06:54:31;;;;;;;10.90;2.22;;;11.20;99.90;;;;;;5132920;27;20096;-73
2023/10/12 07:00:17;;;;;;;10.60;2.95;;;11.30;99.90;;;;;;5122178;27;20078;-72
2023/10/12 07:02:45;;;;;;;10.68;2.45;;;11.30;99.90;;;;;;5132998;27;20043;-73
2023/10/12 07:05:20;;;;;;;10.82;2.13;;;11.50;99.90;;;;;;5113936;27;20506;-72
2023/10/12 07:07:51;;;;;;;10.40;3.08;;;11.80;99.90;;;;;;5113031;27;20039;-73
2023/10/12 07:10:27;;;;;;;10.55;1.70;;;12.40;99.90;;;;;;5113233;27;20052;-72
2023/10/12 07:13:00;;;;;;;9.10;2.10;;;13.50;99.90;;;;;;5124721;27;20047;-72
2023/10/12 07:15:32;;;;;;;10.73;1.98;;;14.70;99.90;;;;;;5131971;27;20418;-73
2023/10/12 07:18:05;;;;;;;10.82;2.22;;;15.70;99.90;;;;;;5132649;27;20047;-73
2023/10/12 07:20:42;;;;;;;11.50;2.30;;;16.70;99.90;;;;;;5132814;27;20078;-71
2023/10/12 07:23:16;;;;;;;10.38;2.20;;;17.60;99.90;;;;;;5132123;27;20047;-71
2023/10/12 07:25:45;;;;;;;5.32;1.70;;;18.30;99.90;;;;;;5131857;27;20176;-73
2023/10/12 07:28:18;;;;;;;6.95;1.98;;;19.20;99.90;;;;;;5131889;27;20058;-72
2023/10/12 07:31:05;;;;;;;4.60;1.80;;;20.00;99.90;;;;;;5114369;27;20051;-72
2023/10/12 07:33:32;;;;;;;7.28;1.73;;;20.20;99.90;;;;;;5132409;27;20053;-73
2023/10/12 07:36:11;;;;;;;8.25;1.90;;;20.30;99.90;;;;;;5129122;27;20047;-73
2023/10/12 07:38:38;;;;;;;5.85;1.88;;;20.60;99.90;;;;;;5113926;28;20043;-73
2023/10/12 07:41:05;;;;;;;7.75;1.67;;;20.80;99.90;;;;;;5113851;27;20051;-72
2023/10/12 07:43:33;;;;;;;6.55;1.80;;;21.40;99.90;;;;;;5112349;27;20429;-72
2023/10/12 07:46:13;;;;;;;5.53;1.73;;;21.60;99.90;;;;;;5112698;28;20134;-72
2023/10/12 07:48:44;;;;;;;7.70;1.73;;;21.60;99.90;;;;;;5112369;27;20808;-72
2023/10/12 07:51:24;;;;;;;7.63;2.28;;;22.00;99.90;;;;;;5111214;28;20534;-73
2023/10/12 07:53:57;;;;;;;6.78;1.75;;;22.10;99.90;;;;;;5111837;28;20130;-74
2023/10/12 07:56:26;;;;;;;8.07;1.88;;;21.80;99.90;;;;;;5111360;28;20057;-74
2023/10/12 07:58:58;;;;;;;11.63;2.55;;;21.70;99.90;;;;;;5112105;28;20047;-74
2023/10/12 08:01:38;;;;;;;7.03;1.73;;;21.30;99.90;;;;;;5109713;28;20126;-73
2023/10/12 08:04:20;;;;;;;9.13;2.13;;;20.60;99.90;;;;;;5111447;28;20031;-72
2023/10/12 08:06:46;;;;;;;9.57;2.40;;;19.90;99.90;;;;;;5111139;28;20063;-73
2023/10/12 08:09:29;;;;;;;6.85;1.67;;;19.30;99.90;;;;;;5111585;28;20039;-72
2023/10/12 08:12:21;;;;;;;6.00;1.55;;;19.00;99.90;;;;;;5111354;28;20055;-72
2023/10/12 08:14:48;;;;;;;6.95;2.00;;;18.80;99.90;;;;;;5110165;28;20134;-73
2023/10/12 08:17:33;;;;;;;8.88;1.80;;;18.40;99.90;;;;;;5110939;28;20054;-73
2023/10/12 08:22:42;;;;;;;6.65;1.70;;;18.00;99.90;;;;;;5110098;28;20036;-72
2023/10/12 08:25:09;;;;;;;9.10;1.55;;;17.80;99.90;;;;;;5111050;28;20460;-71
2023/10/12 08:27:52;;;;;;;8.63;2.10;;;17.60;99.90;;;;;;5109132;28;20048;-73
2023/10/12 08:30:23;;;;;;;10.57;2.50;;;17.30;99.90;;;;;;5110130;28;20043;-73
2023/10/12 08:33:09;;;;;;;7.10;1.65;;;17.20;99.90;;;;;;5108589;28;20048;-73
2023/10/12 08:35:39;;;;;;;7.40;2.03;;;17.00;99.90;;;;;;5111354;28;20039;-73
2023/10/12 08:38:25;;;;;;;8.07;2.10;;;16.90;99.90;;;;;;5111578;28;20403;-71
2023/10/12 08:41:20;;;;;;;5.82;1.75;;;16.90;99.90;;;;;;5111699;28;20075;-72
2023/10/12 08:43:52;;;;;;;10.23;1.92;;;16.80;99.90;;;;;;5111393;28;20036;-73
2023/10/12 08:46:51;;;;;;;8.77;2.28;;;16.70;99.90;;;;;;5110511;28;20139;-75
2023/10/12 08:52:05;;;;;;;7.35;2.15;;;16.40;99.90;;;;;;5108820;28;20134;-73
2023/10/12 08:54:34;;;;;;;12.82;2.78;;;16.40;99.90;;;;;;5108859;28;20055;-72
2023/10/12 08:57:03;;;;;;;9.90;2.55;;;16.40;99.90;;;;;;5110924;28;20480;-73
2023/10/12 08:59:38;;;;;;;6.75;2.17;;;16.40;99.90;;;;;;5110476;28;20065;-73
2023/10/12 09:02:18;;;;;;;8.18;2.65;;;16.40;99.90;;;;;;5112326;28;20560;-73
2023/10/12 09:04:49;;;;;;;6.78;2.30;;;16.40;99.90;;;;;;5108419;28;20059;-74
2023/10/12 09:07:19;;;;;;;17.55;2.72;;;16.40;99.90;;;;;;5108278;28;20120;-73
2023/10/12 09:09:48;;;;;;;10.30;2.23;;;16.40;99.90;;;;;;5109081;28;20140;-73
2023/10/12 09:12:19;;;;;;;10.88;2.47;;;16.50;99.90;;;;;;5109577;28;20300;-73
2023/10/12 09:14:46;;;;;;;10.75;2.85;;;16.70;99.90;;;;;;5110209;28;20060;-74
2023/10/12 09:17:27;;;;;;;6.43;2.22;;;17.10;99.90;;;;;;5108662;28;20047;-74
2023/10/12 09:20:09;;;;;;;10.10;2.78;;;17.80;99.90;;;;;;5109130;28;20051;-74
2023/10/12 09:22:38;;;;;;;10.65;2.72;;;18.40;99.90;;;;;;5109226;28;20051;-73
2023/10/12 09:25:06;;;;;;;4.93;1.80;;;18.50;99.90;;;;;;5110582;28;20130;-73
2023/10/12 09:27:48;;;;;;;6.55;1.85;;;19.00;99.90;;;;;;5109935;28;20342;-73
2023/10/12 09:30:25;;;;;;;9.48;1.98;;;19.70;99.90;;;;;;5108912;28;20085;-74
2023/10/12 09:33:05;;;;;;;6.93;1.77;;;20.70;99.90;;;;;;5109213;28;20128;-73
2023/10/12 09:35:39;;;;;;;6.93;1.67;;;21.70;99.90;;;;;;5109132;28;20527;-73
2023/10/12 09:38:06;;;;;;;7.63;1.80;;;22.10;99.90;;;;;;5110336;28;20044;-74
2023/10/12 09:40:39;;;;;;;7.40;1.60;;;21.80;99.90;;;;;;5110406;28;20157;-73
2023/10/12 09:43:12;;;;;;;5.60;1.70;;;21.80;99.90;;;;;;5108025;28;20445;-73
2023/10/12 09:45:45;;;;;;;7.22;2.25;;;21.90;99.90;;;;;;5110382;28;20050;-73
2023/10/12 09:48:19;;;;;;;5.95;1.83;;;22.00;99.90;;;;;;5112796;28;20112;-72
2023/10/12 09:50:48;;;;;;;9.15;2.60;;;21.80;99.90;;;;;;5126705;27;20063;-75
2023/10/12 09:53:26;;;;;;;6.95;2.13;;;21.60;99.90;;;;;;5117848;27;20054;-74
2023/10/12 09:56:10;;;;;;;8.20;2.40;;;22.20;99.90;;;;;;5136067;27;20070;-74
2023/10/12 09:58:51;;;;;;;7.00;2.10;;;22.80;99.90;;;;;;5137534;27;20046;-74
2023/10/12 10:01:24;;;;;;;7.32;1.98;;;23.00;99.90;;;;;;5137791;27;20458;-74
2023/10/12 10:04:05;;;;;;;5.63;1.70;;;22.60;99.60;;;;;;5127076;27;20074;-74
2023/10/12 10:06:39;;;;;;;6.90;1.50;;;23.10;99.50;;;;;;5117615;27;20101;-73
2023/10/12 10:09:19;;;;;;;7.72;2.38;;;23.30;96.70;;;;;;5117874;27;20108;-74
2023/10/12 10:11:57;;;;;;;8.23;2.25;;;23.80;96.30;;;;;;5137105;27;20057;-74
2023/10/12 10:14:29;;;;;;;7.95;2.25;;;23.80;96.40;;;;;;5117648;27;20178;-74
2023/10/12 10:16:59;;;;;;;9.77;2.42;;;23.90;96.80;;;;;;5117230;27;20468;-73
2023/10/12 10:19:32;;;;;;;6.63;1.85;;;23.60;96.90;;;;;;5128223;27;20553;-74
2023/10/12 10:22:06;;;;;;;4.65;1.20;;;23.60;96.20;;;;;;5130500;27;20053;-74
2023/10/12 10:24:46;;;;;;;7.60;2.00;;;24.40;95.80;;;;;;5148547;27;20809;-75
2023/10/12 10:27:14;;;;;;;9.25;2.08;;;25.50;92.30;;;;;;5121803;27;20051;-75
2023/10/12 10:29:45;;;;;;;6.15;1.73;;;26.10;92.80;;;;;;5117664;27;20043;-74
2023/10/12 10:32:14;;;;;;;6.03;1.65;;;27.20;91.10;;;;;;5116656;27;20077;-74
2023/10/12 10:34:44;;;;;;;7.55;1.77;;;27.80;91.60;;;;;;5137030;27;20039;-74
2023/10/12 10:37:15;;;;;;;8.18;2.05;;;28.00;89.90;;;;;;5154763;27;20042;-74
2023/10/12 10:39:43;;;;;;;8.07;2.13;;;28.30;88.00;;;;;;5136208;27;20085;-74
2023/10/12 10:42:10;;;;;;;7.10;1.90;;;28.40;86.40;;;;;;5136109;27;20051;-74
2023/10/12 10:44:41;;;;;;;5.13;1.30;;;28.40;85.10;;;;;;5136507;27;20051;-74
2023/10/12 10:47:10;;;;;;;5.82;1.90;;;28.20;84.80;;;;;;5154223;27;20042;-74
2023/10/12 10:49:37;;;;;;;6.32;1.80;;;28.30;85.00;;;;;;5136398;27;20169;-74
2023/10/12 10:52:20;;;;;;;6.20;1.73;;;28.90;83.20;;;;;;5135394;27;20043;-75
2023/10/12 10:54:56;;;;;;;5.55;1.73;;;29.40;81.50;;;;;;5154671;27;20502;-75
2023/10/12 10:57:31;;;;;;;4.28;1.60;;;29.50;78.70;;;;;;5136137;27;20081;-75
2023/10/12 10:59:59;;;;;;;6.57;1.63;;;29.10;77.40;;;;;;5135345;27;20047;-75
2023/10/12 11:02:27;;;;;;;6.65;1.70;;;28.50;81.40;;;;;;5136152;27;20087;-73
2023/10/12 11:04:58;;;;;;;7.47;1.92;;;27.70;81.60;;;;;;5118104;27;20560;-75
2023/10/12 11:07:26;;;;;;;5.18;1.52;;;26.60;82.40;;;;;;5116117;27;20049;-74
2023/10/12 11:10:09;;;;;;;5.13;1.70;;;25.90;82.90;;;;;;5116603;27;20451;-75
2023/10/12 11:12:38;;;;;;;6.63;1.60;;;25.20;85.00;;;;;;5130374;27;20103;-75
2023/10/12 11:15:09;;;;;;;7.23;2.00;;;24.60;85.70;;;;;;5130245;27;20070;-74
2023/10/12 11:17:41;;;;;;;4.82;1.45;;;23.80;84.30;;;;;;5116491;27;20323;-75
2023/10/12 11:20:28;;;;;;;4.80;1.40;;;23.40;87.00;;;;;;5116436;27;20084;-75
2023/10/12 11:22:57;;;;;;;6.07;2.05;;;23.30;87.40;;;;;;5122043;27;20092;-75
2023/10/12 11:25:26;;;;;;;8.02;1.77;;;22.70;87.20;;;;;;5135120;27;20058;-74
2023/10/12 11:27:54;;;;;;;7.78;2.03;;;22.20;90.10;;;;;;5135150;27;20065;-73
2023/10/12 11:30:30;;;;;;;5.03;2.50;;;21.80;89.30;;;;;;5134174;27;20046;-73
2023/10/12 11:32:58;;;;;;;6.10;1.90;;;22.00;88.90;;;;;;5141730;27;20447;-74
2023/10/12 11:35:36;;;;;;;6.63;1.65;;;21.80;90.30;;;;;;5118672;27;20387;-74
2023/10/12 11:38:05;;;;;;;7.85;1.77;;;21.60;92.30;;;;;;5124917;27;20061;-74
2023/10/12 11:40:32;;;;;;;8.15;1.95;;;21.60;90.20;;;;;;5116889;27;20107;-73
2023/10/12 11:42:59;;;;;;;4.15;1.60;;;21.20;90.90;;;;;;5134611;27;20047;-73
2023/10/12 11:45:33;;;;;;;7.57;1.95;;;20.90;91.40;;;;;;5134576;27;20054;-74
2023/10/12 11:48:20;;;;;;;6.60;1.80;;;20.70;91.10;;;;;;5119394;27;20131;-74
2023/10/12 11:50:48;;;;;;;6.22;2.13;;;21.10;90.60;;;;;;5124176;27;20579;-74
2023/10/12 11:53:17;;;;;;;7.90;1.60;;;20.80;92.70;;;;;;5116186;27;20043;-74
2023/10/12 11:55:45;;;;;;;7.90;1.83;;;20.50;92.90;;;;;;5116511;27;20084;-75
2023/10/12 11:58:17;;;;;;;9.85;1.80;;;20.20;92.90;;;;;;5117057;27;20043;-75
2023/10/12 12:00:48;;;;;;;10.75;2.33;;;20.10;93.10;;;;;;5116195;27;20051;-74
2023/10/12 12:03:15;;;;;;;10.43;1.83;;;19.90;93.50;;;;;;5131007;27;20046;-73
2023/10/12 12:05:43;;;;;;;9.73;1.90;;;19.60;93.90;;;;;;5119958;27;20051;-72
2023/10/12 12:08:14;;;;;;;7.10;1.85;;;19.40;93.60;;;;;;5130063;27;20047;-73
2023/10/12 12:10:46;;;;;;;7.90;2.00;;;19.20;94.60;;;;;;5113782;27;20130;-73
2023/10/12 12:13:15;;;;;;;6.22;1.70;;;19.20;96.10;;;;;;5130751;27;20050;-74
2023/10/12 12:15:43;;;;;;;5.18;1.60;;;18.80;95.10;;;;;;5114451;27;20130;-74
2023/10/12 12:18:14;;;;;;;7.13;1.73;;;18.50;95.50;;;;;;5119020;27;20107;-74
2023/10/12 12:20:44;;;;;;;6.15;1.75;;;18.50;95.60;;;;;;5124518;27;20521;-74
2023/10/12 12:23:11;;;;;;;6.57;1.43;;;18.50;95.50;;;;;;5121771;27;20045;-74
2023/10/12 12:25:40;;;;;;;6.43;2.00;;;18.50;96.20;;;;;;5117707;27;20074;-74
2023/10/12 12:28:13;;;;;;;10.02;1.83;;;18.50;97.20;;;;;;5116403;27;20524;-74
2023/10/12 12:30:46;;;;;;;8.00;2.13;;;18.50;96.60;;;;;;5108368;27;20078;-77
2023/10/12 12:33:16;;;;;;;7.20;1.75;;;18.40;97.30;;;;;;5110343;27;20506;-74
2023/10/12 12:35:46;;;;;;;5.97;1.55;;;18.20;97.40;;;;;;5115898;27;20555;-74
2023/10/12 12:38:25;;;;;;;10.18;1.75;;;18.10;98.00;;;;;;5122238;27;20066;-75
2023/10/12 12:40:52;;;;;;;12.80;1.90;;;18.00;98.40;;;;;;5122754;27;20057;-75
2023/10/12 12:43:21;;;;;;;7.30;1.70;;;17.80;99.50;;;;;;5127842;27;20122;-74
2023/10/12 12:45:47;;;;;;;6.93;1.73;;;17.80;99.80;;;;;;5131213;27;20518;-74
2023/10/12 12:48:15;;;;;;;5.00;1.83;;;17.80;99.90;;;;;;5132770;27;20103;-73
2023/10/12 12:50:43;;;;;;;5.60;1.70;;;17.70;99.90;;;;;;5123776;27;20047;-73
2023/10/12 12:53:11;;;;;;;11.48;2.35;;;17.60;99.90;;;;;;5114508;27;20051;-73
2023/10/12 12:55:39;;;;;;;8.77;1.90;;;17.50;99.20;;;;;;5123187;27;20380;-73
2023/10/12 12:58:09;;;;;;;8.18;2.20;;;17.50;99.90;;;;;;5113976;27;20133;-73
2023/10/12 13:00:37;;;;;;;7.47;1.87;;;17.40;99.90;;;;;;5114184;27;20515;-73
2023/10/12 13:03:05;;;;;;;11.43;2.17;;;17.40;99.90;;;;;;5117954;27;20363;-73
2023/10/12 13:05:33;;;;;;;6.60;2.00;;;17.30;99.90;;;;;;5133808;27;20047;-74
2023/10/12 13:08:00;;;;;;;6.00;2.17;;;17.30;99.90;;;;;;5114792;27;20107;-74
2023/10/12 13:10:27;;;;;;;6.78;1.90;;;17.30;99.90;;;;;;5114337;27;20470;-73
2023/10/12 13:12:54;;;;;;;10.05;1.85;;;17.20;99.90;;;;;;5115537;27;20043;-73
2023/10/12 13:15:23;;;;;;;5.95;1.65;;;17.30;99.90;;;;;;5114871;27;20379;-73
2023/10/12 13:17:51;;;;;;;6.45;1.58;;;17.20;99.90;;;;;;5114887;27;20051;-73
2023/10/12 13:20:22;;;;;;;13.07;1.88;;;17.10;99.90;;;;;;5118451;27;20559;-73
2023/10/12 13:22:49;;;;;;;5.97;2.10;;;17.00;99.90;;;;;;5115641;27;20043;-74
2023/10/12 13:25:18;;;;;;;6.90;1.98;;;17.00;99.90;;;;;;5137041;27;20047;-74
2023/10/12 13:27:49;;;;;;;7.93;2.30;;;17.00;99.90;;;;;;5120952;27;20142;-75
2023/10/12 13:30:16;;;;;;;7.70;2.08;;;17.10;99.90;;;;;;5118827;27;20100;-74
2023/10/12 13:32:43;;;;;;;7.43;2.05;;;17.00;99.90;;;;;;5122809;27;20057;-73
2023/10/12 13:35:31;;;;;;;7.75;2.25;;;16.90;99.90;;;;;;5137388;27;20046;-74
2023/10/12 13:38:02;;;;;;;10.82;2.60;;;17.00;99.90;;;;;;5128351;27;20055;-74
2023/10/12 13:40:30;;;;;;;9.73;2.00;;;17.00;99.90;;;;;;5118478;27;20471;-73
2023/10/12 13:43:01;;;;;;;10.82;1.95;;;17.00;99.90;;;;;;5117833;27;20394;-74